createdAt,value
2022-11-09T00:00:37.454Z,100186.25
2022-11-09T00:02:43.865Z,100189.19
2022-11-09T00:04:46.290Z,100196.38
2022-11-09T00:06:52.972Z,100189.03
2022-11-09T00:08:55.683Z,100190.13
2022-11-09T00:11:05.640Z,100189.63
2022-11-09T00:13:07.972Z,100186.06
2022-11-09T00:15:10.679Z,100185.22
2022-11-09T00:17:12.850Z,100186.06
2022-11-09T00:19:15.100Z,100186.81
2022-11-09T00:21:20.958Z,100186.88
2022-11-09T00:23:23.632Z,100188.53
2022-11-09T00:25:28.188Z,100192.41
2022-11-09T00:27:30.296Z,100185.22
2022-11-09T00:29:32.425Z,100180.84
2022-11-09T00:31:35.803Z,100182.63
2022-11-09T00:33:38.780Z,100176.09
2022-11-09T00:35:41.039Z,100182.16
2022-11-09T00:37:43.267Z,100170.31
2022-11-09T00:39:51.191Z,100176.78
2022-11-09T00:41:55.335Z,100172.03
2022-11-09T00:43:57.858Z,100181.84
2022-11-09T00:46:00.243Z,100172.91
2022-11-09T00:48:02.849Z,100171.88
2022-11-09T00:50:05.886Z,100172.78
2022-11-09T00:52:08.806Z,100172.84
2022-11-09T00:54:13.505Z,100173.63
2022-11-09T00:56:15.879Z,100172.06
2022-11-09T00:58:18.462Z,100170.16
2022-11-09T01:00:23.756Z,100176.47
2022-11-09T01:02:26.091Z,100163.84
2022-11-09T01:04:28.646Z,100164.72
2022-11-09T01:06:32.058Z,100176.56
2022-11-09T01:08:36.606Z,100170.31
2022-11-09T01:10:43.914Z,100180.19
2022-11-09T01:12:46.298Z,100173.91
2022-11-09T01:14:50.071Z,100168.59
2022-11-09T01:16:52.458Z,100168.63
2022-11-09T01:18:58.090Z,100174.94
2022-11-09T01:21:02.030Z,100178.53
2022-11-09T01:23:06.844Z,100178.66
2022-11-09T01:25:09.921Z,100172.44
2022-11-09T01:27:14.490Z,100172.44
2022-11-09T01:29:16.870Z,100172.44
2022-11-09T01:31:21.247Z,100164.56
2022-11-09T01:33:23.470Z,100164.66
2022-11-09T01:35:25.673Z,100160.06
2022-11-09T01:37:28.283Z,100157.44
2022-11-09T01:39:30.961Z,100158.41
2022-11-09T01:41:33.097Z,100156.78
2022-11-09T01:43:38.508Z,100150.63
2022-11-09T01:45:45.942Z,100164.31
2022-11-09T01:48:13.857Z,100155.47
2022-11-09T01:50:24.688Z,100144.75
2022-11-09T01:52:37.716Z,100144.84
2022-11-09T01:54:48.538Z,100148.16
2022-11-09T01:56:55.779Z,100149.91
2022-11-09T01:59:03.415Z,100145.38
2022-11-09T02:01:13.889Z,100146.25
2022-11-09T02:03:23.132Z,100147.22
2022-11-09T02:05:31.063Z,100143.56
2022-11-09T02:07:34.643Z,100142.81
2022-11-09T02:10:21.219Z,100145.69
2022-11-09T02:12:28.541Z,100146.69
2022-11-09T02:14:33.144Z,100141.41
2022-11-09T02:16:35.948Z,100145.06
2022-11-09T02:18:43.017Z,100142.47
2022-11-09T02:21:04.583Z,100139.78
2022-11-09T02:23:06.843Z,100138.00
2022-11-09T02:25:12.950Z,100141.78
2022-11-09T02:27:15.132Z,100141.78
2022-11-09T02:29:41.886Z,100138.56
2022-11-09T02:31:49.356Z,100138.78
2022-11-09T02:33:51.758Z,100135.31
2022-11-09T02:35:53.914Z,100135.44
2022-11-09T02:37:57.088Z,100135.47
2022-11-09T02:40:02.727Z,100135.59
2022-11-09T02:42:18.335Z,100130.31
2022-11-09T02:44:25.722Z,100137.38
2022-11-09T02:46:36.109Z,100128.38
2022-11-09T02:48:39.090Z,100130.00
2022-11-09T02:50:42.316Z,100129.97
2022-11-09T02:52:44.541Z,100132.56
2022-11-09T02:54:47.040Z,100132.63
2022-11-09T02:56:49.725Z,100131.78
2022-11-09T02:58:52.286Z,100126.41
2022-11-09T03:00:54.632Z,100127.31
2022-11-09T03:02:59.537Z,100129.09
2022-11-09T03:05:01.987Z,100133.59
2022-11-09T03:07:05.390Z,100129.97
2022-11-09T03:09:10.284Z,100134.59
2022-11-09T03:11:12.601Z,100134.69
2022-11-09T03:13:15.087Z,100130.16
2022-11-09T03:15:18.169Z,100127.38
2022-11-09T03:17:21.578Z,100129.19
2022-11-09T03:19:23.654Z,100119.31
2022-11-09T03:21:29.561Z,100123.19
2022-11-09T03:23:32.667Z,100119.53
2022-11-09T03:25:36.882Z,100117.63
2022-11-09T03:27:40.694Z,100121.25
2022-11-09T03:29:43.790Z,100116.75
2022-11-09T03:31:46.019Z,100117.78
2022-11-09T03:33:48.264Z,100117.03
2022-11-09T03:35:51.458Z,100124.16
2022-11-09T03:37:54.746Z,100117.63
2022-11-09T03:39:57.519Z,100115.09
2022-11-09T03:42:01.006Z,100117.72
2022-11-09T03:44:03.344Z,100119.63
2022-11-09T03:46:05.615Z,100121.56
2022-11-09T03:48:07.719Z,100118.06
2022-11-09T03:50:11.049Z,100120.72
2022-11-09T03:52:13.269Z,100120.69
2022-11-09T03:54:16.532Z,100120.63
2022-11-09T03:56:19.221Z,100124.94
2022-11-09T03:58:21.682Z,100124.81
2022-11-09T04:00:27.387Z,100122.97
2022-11-09T04:02:30.774Z,100125.44
2022-11-09T04:04:32.873Z,100123.63
2022-11-09T04:06:35.173Z,100117.41
2022-11-09T04:08:37.368Z,100115.53
2022-11-09T04:10:39.837Z,100118.25
2022-11-09T04:12:42.154Z,100115.53
2022-11-09T04:14:44.434Z,100116.41
2022-11-09T04:16:46.693Z,100109.09
2022-11-09T04:18:49.096Z,100115.38
2022-11-09T04:20:51.366Z,100116.41
2022-11-09T04:22:58.853Z,100111.25
2022-11-09T04:25:01.208Z,100119.25
2022-11-09T04:27:03.793Z,100120.19
2022-11-09T04:29:06.042Z,100125.66
2022-11-09T04:31:08.139Z,100121.16
2022-11-09T04:33:10.426Z,100122.03
2022-11-09T04:35:13.213Z,100119.41
2022-11-09T04:37:15.464Z,100126.63
2022-11-09T04:39:17.585Z,100119.44
2022-11-09T04:41:20.009Z,100126.63
2022-11-09T04:43:22.450Z,100122.22
2022-11-09T04:45:24.850Z,100116.88
2022-11-09T04:47:27.993Z,100125.00
2022-11-09T04:49:30.220Z,100126.06
2022-11-09T04:51:32.346Z,100121.88
2022-11-09T04:53:35.318Z,100121.16
2022-11-09T04:55:37.931Z,100127.38
2022-11-09T04:57:40.356Z,100125.56
2022-11-09T04:59:42.680Z,100123.72
2022-11-09T05:01:44.756Z,100128.22
2022-11-09T05:03:46.972Z,100130.91
2022-11-09T05:05:49.450Z,100117.56
2022-11-09T05:07:51.693Z,100121.03
2022-11-09T05:09:53.715Z,100124.75
2022-11-09T05:11:55.935Z,100120.38
2022-11-09T05:13:58.237Z,100119.56
2022-11-09T05:16:02.002Z,100123.25
2022-11-09T05:18:05.447Z,100126.03
2022-11-09T05:20:08.260Z,100125.22
2022-11-09T05:22:36.608Z,100130.75
2022-11-09T05:24:41.346Z,100132.69
2022-11-09T05:26:43.521Z,100135.38
2022-11-09T05:28:45.751Z,100141.53
2022-11-09T05:30:47.987Z,100133.44
2022-11-09T05:32:50.382Z,100128.91
2022-11-09T05:34:52.719Z,100134.31
2022-11-09T05:36:57.153Z,100140.50
2022-11-09T05:39:03.332Z,100153.00
2022-11-09T05:41:05.557Z,100152.00
2022-11-09T05:43:07.798Z,100152.88
2022-11-09T05:45:40.760Z,100148.47
2022-11-09T05:47:39.406Z,100150.34
2022-11-09T05:49:41.779Z,100154.53
2022-11-09T05:51:44.426Z,100154.41
2022-11-09T05:53:47.286Z,100153.53
2022-11-09T05:55:49.864Z,100155.28
2022-11-09T05:57:52.235Z,100155.38
2022-11-09T05:59:54.271Z,100144.50
2022-11-09T06:01:56.435Z,100154.34
2022-11-09T06:03:58.506Z,100157.75
2022-11-09T06:06:07.834Z,100156.72
2022-11-09T06:08:14.462Z,100162.06
2022-11-09T06:10:18.060Z,100163.81
2022-11-09T06:12:20.514Z,100166.31
2022-11-09T06:14:22.786Z,100171.59
2022-11-09T06:16:24.882Z,100166.97
2022-11-09T06:18:29.329Z,100174.91
2022-11-09T06:20:33.345Z,100171.06
2022-11-09T06:22:35.386Z,100168.09
2022-11-09T06:24:37.236Z,100174.06
2022-11-09T06:26:39.209Z,100168.31
2022-11-09T06:28:42.013Z,100168.91
2022-11-09T06:30:44.132Z,100176.88
2022-11-09T06:32:47.596Z,100177.41
2022-11-09T06:34:50.152Z,100173.81
2022-11-09T06:36:52.341Z,100177.91
2022-11-09T06:38:54.575Z,100184.97
2022-11-09T06:40:58.889Z,100185.66
2022-11-09T06:43:01.375Z,100184.38
2022-11-09T06:45:03.427Z,100185.84
2022-11-09T06:47:05.418Z,100184.59
2022-11-09T06:49:07.645Z,100185.13
2022-11-09T06:51:11.329Z,100185.63
2022-11-09T06:53:15.812Z,100181.69
2022-11-09T06:55:17.937Z,100173.16
2022-11-09T06:57:20.085Z,100178.31
2022-11-09T06:59:22.514Z,100177.03
2022-11-09T07:01:29.346Z,100176.78
2022-11-09T07:03:31.427Z,100167.69
2022-11-09T07:05:33.442Z,100173.44
2022-11-09T07:07:35.455Z,100178.53
2022-11-09T07:09:37.817Z,100171.88
2022-11-09T07:11:40.018Z,100171.41
2022-11-09T07:13:42.781Z,100173.81
2022-11-09T07:15:44.778Z,100172.66
2022-11-09T07:17:47.035Z,100176.97
2022-11-09T07:19:48.961Z,100174.78
2022-11-09T07:21:51.306Z,100174.66
2022-11-09T07:23:53.236Z,100175.41
2022-11-09T07:25:58.246Z,100175.34
2022-11-09T07:28:05.366Z,100164.31
2022-11-09T07:30:08.107Z,100170.41
2022-11-09T07:32:10.171Z,100172.56
2022-11-09T07:34:12.248Z,100168.84
2022-11-09T07:36:19.806Z,100173.16
2022-11-09T07:38:23.260Z,100165.44
2022-11-09T07:40:25.498Z,100168.81
2022-11-09T07:42:27.628Z,100166.81
2022-11-09T07:44:29.714Z,100164.88
2022-11-09T07:46:31.685Z,100162.31
2022-11-09T07:48:33.722Z,100162.75
2022-11-09T07:50:36.754Z,100156.25
2022-11-09T07:52:38.622Z,100167.63
2022-11-09T07:54:41.005Z,100163.69
2022-11-09T07:56:42.917Z,100164.19
2022-11-09T07:58:44.861Z,100165.00
2022-11-09T08:00:46.871Z,100163.84
2022-11-09T08:03:14.245Z,100159.13
2022-11-09T08:05:16.845Z,100160.88
2022-11-09T08:07:18.948Z,100159.72
2022-11-09T08:09:21.722Z,100162.34
2022-11-09T08:11:24.957Z,100155.72
2022-11-09T08:13:27.139Z,100154.34
2022-11-09T08:15:30.748Z,100149.59
2022-11-09T08:17:33.165Z,100152.91
2022-11-09T08:19:35.443Z,100148.22
2022-11-09T08:21:38.297Z,100152.56
2022-11-09T08:23:40.831Z,100151.75
2022-11-09T08:25:43.409Z,100149.84
2022-11-09T08:27:45.559Z,100149.47
2022-11-09T08:29:47.725Z,100153.72
2022-11-09T08:31:51.305Z,100150.88
2022-11-09T08:33:55.176Z,100142.53
2022-11-09T08:35:57.720Z,100148.38
2022-11-09T08:38:03.347Z,100150.94
2022-11-09T08:40:07.244Z,100151.81
2022-11-09T08:42:09.503Z,100148.13
2022-11-09T08:44:12.341Z,100154.44
2022-11-09T08:46:17.326Z,100152.16
2022-11-09T08:48:19.864Z,100144.63
2022-11-09T08:50:24.537Z,100154.22
2022-11-09T08:52:26.698Z,100146.81
2022-11-09T08:54:28.657Z,100143.13
2022-11-09T08:56:30.694Z,100138.63
2022-11-09T08:58:32.805Z,100144.59
2022-11-09T09:00:34.819Z,100145.66
2022-11-09T09:02:36.781Z,100142.50
2022-11-09T09:04:39.419Z,100140.31
2022-11-09T09:06:41.926Z,100135.66
2022-11-09T09:08:43.989Z,100141.69
2022-11-09T09:10:46.008Z,100140.41
2022-11-09T09:12:47.997Z,100139.53
2022-11-09T09:14:50.745Z,100138.31
2022-11-09T09:16:52.966Z,100144.47
2022-11-09T09:18:55.047Z,100138.81
2022-11-09T09:20:57.170Z,100143.09
2022-11-09T09:23:00.498Z,100145.75
2022-11-09T09:25:02.567Z,100144.63
2022-11-09T09:27:04.679Z,100140.44
2022-11-09T09:29:06.879Z,100138.53
2022-11-09T09:31:10.372Z,100141.72
2022-11-09T09:33:15.048Z,100134.09
2022-11-09T09:35:17.583Z,100135.66
2022-11-09T09:37:19.645Z,100133.31
2022-11-09T09:39:21.963Z,100128.09
2022-11-09T09:41:38.471Z,100128.72
2022-11-09T09:43:43.946Z,100113.66
2022-11-09T09:45:51.827Z,100117.94
2022-11-09T09:48:15.878Z,100120.06
2022-11-09T09:50:27.111Z,100116.13
2022-11-09T09:53:10.627Z,100119.25
2022-11-09T09:55:20.030Z,100116.38
2022-11-09T09:57:23.647Z,100120.56
2022-11-09T09:59:37.696Z,100114.00
2022-11-09T10:01:44.863Z,100116.25
2022-11-09T10:03:53.983Z,100118.78
2022-11-09T10:06:08.159Z,100112.50
2022-11-09T10:08:20.789Z,100104.06
2022-11-09T10:10:45.876Z,100102.69
2022-11-09T10:14:00.276Z,100109.69
2022-11-09T10:16:09.401Z,100107.00
2022-11-09T10:18:14.292Z,100105.69
2022-11-09T10:20:22.387Z,100102.88
2022-11-09T10:22:31.617Z,100104.34
2022-11-09T10:24:58.715Z,100105.72
2022-11-09T10:27:26.352Z,100109.03
2022-11-09T10:29:35.091Z,100107.66
2022-11-09T10:31:43.086Z,100105.53
2022-11-09T10:33:55.639Z,100101.59
2022-11-09T10:36:24.364Z,100101.47
2022-11-09T10:38:32.443Z,100097.50
2022-11-09T10:40:58.508Z,100100.72
2022-11-09T10:43:19.074Z,100091.28
2022-11-09T10:45:44.674Z,100092.00
2022-11-09T10:48:07.780Z,100087.31
2022-11-09T10:50:30.879Z,100089.41
2022-11-09T10:52:52.195Z,100089.06
2022-11-09T10:55:31.939Z,100090.63
2022-11-09T10:57:56.959Z,100092.28
2022-11-09T11:00:20.359Z,100085.84
2022-11-09T11:02:46.701Z,100092.88
2022-11-09T11:05:07.181Z,100078.84
2022-11-09T11:07:28.086Z,100081.97
2022-11-09T11:09:48.865Z,100072.91
2022-11-09T11:12:18.009Z,100075.53
2022-11-09T11:14:43.613Z,100078.16
2022-11-09T11:17:04.218Z,100078.53
2022-11-09T11:19:30.554Z,100060.25
2022-11-09T11:22:11.203Z,100061.00
2022-11-09T11:24:52.958Z,100056.44
2022-11-09T11:27:32.755Z,100049.03
2022-11-09T11:30:05.744Z,100054.59
2022-11-09T11:32:26.747Z,100039.69
2022-11-09T11:35:03.426Z,100033.25
2022-11-09T11:37:45.601Z,100042.09
2022-11-09T11:40:27.945Z,100039.06
2022-11-09T11:43:02.627Z,100032.72
2022-11-09T11:45:41.613Z,100028.91
2022-11-09T11:48:26.549Z,100020.56
2022-11-09T11:51:08.468Z,100027.84
2022-11-09T11:53:59.579Z,100024.25
2022-11-09T11:56:44.577Z,100021.19
2022-11-09T11:59:39.338Z,100027.09
2022-11-09T12:02:32.860Z,100023.59
2022-11-09T12:05:26.389Z,100019.56
2022-11-09T12:07:57.569Z,100026.09
2022-11-09T12:10:28.689Z,100027.66
2022-11-09T12:13:18.086Z,100024.56
2022-11-09T12:16:04.987Z,100016.19
2022-11-09T12:18:45.784Z,100023.16
2022-11-09T12:21:18.435Z,100018.59
2022-11-09T12:23:54.865Z,100018.28
2022-11-09T12:27:04.672Z,100018.06
2022-11-09T12:29:36.268Z,100012.75
2022-11-09T12:31:56.973Z,100013.50
2022-11-09T12:35:24.558Z,100006.59
2022-11-09T12:37:54.720Z,100007.38
2022-11-09T12:40:26.616Z,100018.50
2022-11-09T12:42:57.251Z,100005.72
2022-11-09T12:45:20.535Z,100003.88
2022-11-09T12:47:43.565Z,100003.69
2022-11-09T12:50:13.026Z,99997.03
2022-11-09T12:52:34.467Z,100001.63
2022-11-09T12:54:57.643Z,99999.75
2022-11-09T12:57:28.252Z,99994.53
2022-11-09T12:59:55.159Z,99992.78
2022-11-09T13:02:38.401Z,99990.06
2022-11-09T13:05:10.993Z,99995.41
2022-11-09T13:07:49.779Z,99994.06
2022-11-09T13:10:37.980Z,99986.97
2022-11-09T13:13:11.022Z,99991.66
2022-11-09T13:15:34.586Z,99989.59
2022-11-09T13:17:59.415Z,99993.19
2022-11-09T13:23:59.984Z,99984.47
2022-11-09T13:26:31.431Z,99993.63
2022-11-09T13:29:15.442Z,99991.84
2022-11-09T13:32:14.207Z,99989.47
2022-11-09T13:34:48.566Z,99994.69
2022-11-09T13:37:38.331Z,99993.06
2022-11-09T13:40:01.191Z,99991.00
2022-11-09T13:42:33.968Z,99994.03
2022-11-09T13:48:50.401Z,99984.84
2022-11-09T13:51:22.334Z,99987.09
2022-11-09T13:54:18.456Z,99993.34
2022-11-09T13:56:41.223Z,99993.25
2022-11-09T13:59:30.018Z,100000.09
2022-11-09T14:01:50.627Z,99984.31
2022-11-09T14:04:25.043Z,99992.53
2022-11-09T14:06:46.030Z,100000.38
2022-11-09T14:09:38.890Z,99998.47
2022-11-09T14:12:21.268Z,99999.16
2022-11-09T14:15:03.927Z,99996.06
2022-11-09T14:17:38.050Z,99995.94
2022-11-09T14:20:19.376Z,99985.84
2022-11-09T14:22:40.664Z,99982.94
2022-11-09T14:25:13.914Z,99992.66
2022-11-09T14:27:34.561Z,99990.50
2022-11-09T14:29:57.445Z,99985.25
2022-11-09T14:32:26.720Z,99991.19
2022-11-09T14:34:47.092Z,99985.84
2022-11-09T14:37:07.921Z,99987.91
2022-11-09T14:39:37.340Z,99984.47
2022-11-09T14:41:57.997Z,99983.03
2022-11-09T14:44:28.971Z,99982.25
2022-11-09T14:46:54.374Z,99991.69
2022-11-09T14:50:34.103Z,99987.00
2022-11-09T14:52:56.568Z,99988.84
2022-11-09T14:55:22.070Z,99989.47
2022-11-09T14:57:43.958Z,99983.59
2022-11-09T15:00:05.274Z,99991.09
2022-11-09T15:02:26.383Z,99995.13
2022-11-09T15:04:57.737Z,99998.31
2022-11-09T15:07:22.509Z,99990.16
2022-11-09T15:09:46.008Z,99993.94
2022-11-09T15:12:15.382Z,99985.31
2022-11-09T15:14:36.254Z,99989.06
2022-11-09T15:17:14.317Z,99988.16
2022-11-09T15:19:47.833Z,99991.91
2022-11-09T15:22:43.122Z,99990.59
2022-11-09T15:25:19.242Z,99992.91
2022-11-09T15:27:40.167Z,100000.00
2022-11-09T15:30:04.345Z,99993.09
2022-11-09T15:32:25.934Z,99997.84
2022-11-09T15:34:57.063Z,99992.88
2022-11-09T15:37:30.214Z,99992.25
2022-11-09T15:39:50.948Z,99995.06
2022-11-09T15:42:13.159Z,99989.09
2022-11-09T15:44:34.816Z,99995.69
2022-11-09T15:46:55.904Z,99996.38
2022-11-09T15:49:19.403Z,99994.53
2022-11-09T15:51:40.444Z,100002.06
2022-11-09T15:54:01.487Z,99998.69
2022-11-09T15:56:24.665Z,100000.69
2022-11-09T15:58:47.070Z,99997.19
2022-11-09T16:01:08.963Z,99999.09
2022-11-09T16:03:29.497Z,99996.66
2022-11-09T16:05:50.111Z,100000.56
2022-11-09T16:08:11.775Z,100000.81
2022-11-09T16:10:37.553Z,100004.69
2022-11-09T16:12:58.019Z,100002.22
2022-11-09T16:15:19.607Z,100009.00
2022-11-09T16:17:40.373Z,100003.47
2022-11-09T16:20:00.929Z,100007.19
2022-11-09T16:22:21.451Z,100013.91
2022-11-09T16:24:42.321Z,100021.31
2022-11-09T16:27:12.558Z,100021.47
2022-11-09T16:29:43.391Z,100025.06
2022-11-09T16:32:04.253Z,100018.59
2022-11-09T16:34:25.168Z,100019.50
2022-11-09T16:36:49.914Z,100023.94
2022-11-09T16:39:17.395Z,100023.06
2022-11-09T16:41:42.139Z,100027.06
2022-11-09T16:44:03.828Z,100021.56
2022-11-09T16:46:27.915Z,100020.94
2022-11-09T16:48:48.472Z,100034.50
2022-11-09T16:51:09.548Z,100020.19
2022-11-09T16:53:30.409Z,100027.63
2022-11-09T16:55:51.072Z,100025.97
2022-11-09T16:58:11.236Z,100018.13
2022-11-09T17:00:55.728Z,100024.75
2022-11-09T17:03:12.418Z,100031.38
2022-11-09T17:05:32.907Z,100031.47
2022-11-09T17:07:53.976Z,100029.75
2022-11-09T17:10:15.515Z,100029.03
2022-11-09T17:12:36.279Z,100028.38
2022-11-09T17:14:56.838Z,100026.69
2022-11-09T17:17:22.386Z,100029.50
2022-11-09T17:19:44.065Z,100028.88
2022-11-09T17:22:05.013Z,100030.84
2022-11-09T17:24:26.710Z,100020.22
2022-11-09T17:26:47.708Z,100028.72
2022-11-09T17:29:08.389Z,100027.16
2022-11-09T17:31:28.816Z,100029.13
2022-11-09T17:33:49.693Z,100033.81
2022-11-09T17:36:14.229Z,100029.50
2022-11-09T17:38:35.563Z,100031.50
2022-11-09T17:41:05.577Z,100030.03
2022-11-09T17:43:26.344Z,100032.81
2022-11-09T17:45:47.115Z,100026.38
2022-11-09T17:48:08.353Z,100027.63
2022-11-09T17:50:28.574Z,100031.28
2022-11-09T17:52:49.520Z,100030.56
2022-11-09T17:55:09.886Z,100030.78
2022-11-09T17:57:30.444Z,100033.66
2022-11-09T17:59:50.884Z,100038.25
2022-11-09T18:02:11.746Z,100038.00
2022-11-09T18:04:32.269Z,100039.94
2022-11-09T18:06:53.058Z,100033.56
2022-11-09T18:11:55.853Z,100033.56
2022-11-09T18:14:16.562Z,100036.47
2022-11-09T18:16:37.478Z,100029.34
2022-11-09T18:19:02.097Z,100026.69
2022-11-09T18:21:23.753Z,100035.56
2022-11-09T18:23:45.717Z,100026.69
2022-11-09T18:26:06.760Z,100019.97
2022-11-09T18:28:27.403Z,100019.97
2022-11-09T18:30:47.718Z,100029.16
2022-11-09T18:33:08.991Z,100020.84
2022-11-09T18:35:29.415Z,100029.97
2022-11-09T18:37:49.921Z,100024.06
2022-11-09T18:40:11.073Z,100028.69
2022-11-09T18:42:32.022Z,100030.72
2022-11-09T18:44:52.936Z,100028.56
2022-11-09T18:47:15.474Z,100030.25
2022-11-09T18:49:36.919Z,100026.75
2022-11-09T18:51:59.291Z,100034.63
2022-11-09T18:54:20.239Z,100032.94
2022-11-09T18:56:41.196Z,100033.28
2022-11-09T18:59:02.028Z,100033.38
2022-11-09T19:01:25.079Z,100034.53
2022-11-09T19:03:46.103Z,100033.72
2022-11-09T19:06:10.018Z,100032.53
2022-11-09T19:08:50.534Z,100035.63
2022-11-09T19:11:13.283Z,100038.03
2022-11-09T19:13:33.479Z,100030.16
2022-11-09T19:15:58.195Z,100032.16
2022-11-09T19:18:19.179Z,100036.41
2022-11-09T19:20:39.501Z,100033.84
2022-11-09T19:23:00.007Z,100035.66
2022-11-09T19:25:20.461Z,100037.22
2022-11-09T19:27:41.688Z,100043.38
2022-11-09T19:30:08.966Z,100039.66
2022-11-09T19:32:29.753Z,100042.22
2022-11-09T19:34:50.260Z,100038.78
2022-11-09T19:37:12.152Z,100041.97
2022-11-09T19:39:35.325Z,100041.13
2022-11-09T19:41:56.853Z,100039.78
2022-11-09T19:44:18.260Z,100040.09
2022-11-09T19:46:39.094Z,100040.34
2022-11-09T19:48:59.946Z,100038.44
2022-11-09T19:51:23.827Z,100047.56
2022-11-09T19:53:56.400Z,100046.69
2022-11-09T19:56:18.538Z,100041.78
2022-11-09T19:58:39.281Z,100041.03
2022-11-09T20:01:08.861Z,100050.56
2022-11-09T20:03:29.610Z,100045.69
2022-11-09T20:05:54.758Z,100043.63
2022-11-09T20:08:15.410Z,100043.84
2022-11-09T20:10:37.902Z,100053.41
2022-11-09T20:12:58.710Z,100047.53
2022-11-09T20:15:19.711Z,100050.16
2022-11-09T20:17:40.325Z,100052.00
2022-11-09T20:20:00.590Z,100053.88
2022-11-09T20:22:20.911Z,100053.94
2022-11-09T20:24:41.474Z,100055.88
2022-11-09T20:27:01.825Z,100052.56
2022-11-09T20:29:22.374Z,100040.19
2022-11-09T20:31:43.029Z,100048.22
2022-11-09T20:34:07.001Z,100044.63
2022-11-09T20:36:27.434Z,100042.81
2022-11-09T20:38:48.795Z,100047.38
2022-11-09T20:41:11.812Z,100035.81
2022-11-09T20:43:32.627Z,100029.47
2022-11-09T20:45:54.008Z,100026.94
2022-11-09T20:48:38.687Z,100032.28
2022-11-09T20:50:55.007Z,100033.22
2022-11-09T20:53:15.493Z,100030.34
2022-11-09T20:55:40.410Z,100027.63
2022-11-09T20:58:00.563Z,100028.41
2022-11-09T21:00:24.739Z,100027.75
2022-11-09T21:06:45.401Z,100021.84
2022-11-09T21:09:06.343Z,100028.94
2022-11-09T21:11:34.681Z,100025.56
2022-11-09T21:13:56.452Z,100015.72
2022-11-09T21:16:18.260Z,100018.16
2022-11-09T21:18:39.136Z,100030.03
2022-11-09T21:21:14.242Z,100026.91
2022-11-09T21:23:53.784Z,100016.94
2022-11-09T21:26:53.008Z,100017.03
2022-11-09T21:29:43.659Z,100009.06
2022-11-09T21:32:05.258Z,100015.09
2022-11-09T21:34:25.923Z,100018.69
2022-11-09T21:36:46.354Z,100016.97
2022-11-09T21:39:07.177Z,100026.75
2022-11-09T21:41:39.842Z,100022.25
2022-11-09T21:44:00.363Z,100024.13
2022-11-09T21:46:21.828Z,100021.56
2022-11-09T21:48:45.424Z,100027.81
2022-11-09T21:51:06.019Z,100039.44
2022-11-09T21:53:26.985Z,100035.69
2022-11-09T21:55:48.028Z,100035.81
2022-11-09T21:58:08.333Z,100033.22
2022-11-09T22:00:29.048Z,100039.25
2022-11-09T22:02:49.740Z,100035.69
2022-11-09T22:05:10.681Z,100038.13
2022-11-09T22:07:31.358Z,100035.69
2022-11-09T22:12:52.714Z,100036.69
2022-11-09T22:15:32.024Z,100041.19
2022-11-09T22:17:56.597Z,100043.91
2022-11-09T22:20:36.157Z,100045.94
2022-11-09T22:22:57.332Z,100043.59
2022-11-09T22:25:18.249Z,100040.69
2022-11-09T22:27:39.005Z,100045.34
2022-11-09T22:30:00.295Z,100042.59
2022-11-09T22:32:21.926Z,100055.16
2022-11-09T22:34:42.637Z,100048.53
2022-11-09T22:37:03.791Z,100049.47
2022-11-09T22:39:24.590Z,100043.19
2022-11-09T22:41:45.006Z,100032.97
2022-11-09T22:44:06.091Z,100037.31
2022-11-09T22:46:27.250Z,100042.75
2022-11-09T22:48:48.076Z,100024.59
2022-11-09T22:51:09.429Z,100028.16
2022-11-09T22:53:30.711Z,100024.47
2022-11-09T22:55:59.156Z,100022.13
2022-11-09T22:58:19.571Z,100022.72
2022-11-09T23:00:41.867Z,100021.94
2022-11-09T23:03:02.763Z,100012.88
2022-11-09T23:05:23.842Z,100017.28
2022-11-09T23:07:44.748Z,100018.88
2022-11-09T23:10:06.263Z,100020.66
2022-11-09T23:12:26.877Z,100027.75
2022-11-09T23:15:05.748Z,100024.03
2022-11-09T23:17:46.714Z,100030.31
2022-11-09T23:20:08.373Z,100031.22
2022-11-09T23:22:29.169Z,100022.34
2022-11-09T23:28:43.911Z,100036.56
2022-11-09T23:31:10.740Z,100030.50
2022-11-09T23:33:31.997Z,100034.88
2022-11-09T23:35:52.758Z,100030.31
2022-11-09T23:38:13.518Z,100037.44
2022-11-09T23:40:35.666Z,100031.88
2022-11-09T23:43:04.791Z,100031.00
2022-11-09T23:45:25.427Z,100032.00
2022-11-09T23:47:45.930Z,100028.22
2022-11-09T23:50:06.859Z,100035.28
2022-11-09T23:52:28.270Z,100027.97
2022-11-09T23:54:48.916Z,100035.78
2022-11-09T23:57:09.700Z,100026.53
2022-11-09T23:59:29.905Z,100027.16
